Days, Mississippi
Current Conditions -  °F | °C
As of 4:54 AM on Sunday 23 Nov 2014 (Local Time) from KMEM Reporting Station
Overcast Overcast  
Wind Chill: 60°   Ceiling: 1800
Heat Index: 60°   Visibility: 10mi
Dew Point: 54°   Wind: 14mph
Humidity: 80%   Direction: 140°SE
Pressure: 29.77"   Gusts: 20mph
Location:  34.9155°N, 90.1878°W
Report Text: KMEM 231054Z 14012G17KT 10SM OVC018 16/12 A2977 RMK AO2 SLP079 T01560122 $
Loading
Personal Weather Stations






























Interactive Weather Map New forecast layout! Learn more

10-Day Weather Forecast

Advertisements
Track Severe Weather on mobile